createdAt,value
2023-01-02T00:02:25.074Z,29.67
2023-01-02T00:04:51.627Z,32.63
2023-01-02T00:07:18.103Z,31.75
2023-01-02T00:09:44.611Z,30.75
2023-01-02T00:12:12.607Z,30.98
2023-01-02T00:14:39.074Z,28.25
2023-01-02T00:17:05.567Z,26.05
2023-01-02T00:19:32.076Z,30.30
2023-01-02T00:21:58.599Z,32.75
2023-01-02T00:24:25.483Z,30.95
2023-01-02T00:26:52.480Z,33.72
2023-01-02T00:29:18.970Z,34.33
2023-01-02T00:31:45.483Z,31.38
2023-01-02T00:34:12.561Z,33.72
2023-01-02T00:36:39.056Z,31.88
2023-01-02T00:39:05.655Z,32.55
2023-01-02T00:41:32.254Z,31.50
2023-01-02T00:43:59.211Z,33.03
2023-01-02T00:46:30.256Z,33.92
2023-01-02T00:48:56.816Z,31.02
2023-01-02T00:51:23.304Z,28.85
2023-01-02T00:53:49.866Z,32.03
2023-01-02T00:56:16.308Z,37.13
2023-01-02T00:58:45.829Z,35.47
2023-01-02T01:01:14.080Z,33.53
2023-01-02T01:03:40.767Z,32.08
2023-01-02T01:06:12.843Z,32.20
2023-01-02T01:08:39.378Z,28.88
2023-01-02T01:11:09.958Z,33.63
2023-01-02T01:13:37.449Z,33.22
2023-01-02T01:16:08.323Z,32.90
2023-01-02T01:18:34.902Z,32.65
2023-01-02T01:21:08.192Z,33.08
2023-01-02T01:23:34.729Z,34.25
2023-01-02T01:26:08.689Z,32.35
2023-01-02T01:28:35.462Z,34.97
2023-01-02T01:31:10.114Z,32.70
2023-01-02T01:33:37.045Z,31.15
2023-01-02T01:36:12.464Z,32.13
2023-01-02T01:38:40.919Z,31.52
2023-01-02T01:41:07.845Z,34.30
2023-01-02T01:43:44.907Z,32.78
2023-01-02T01:46:29.574Z,32.05
2023-01-02T01:49:25.406Z,32.53
2023-01-02T01:51:55.745Z,33.75
2023-01-02T01:54:25.876Z,32.58
2023-01-02T01:56:56.682Z,32.67
2023-01-02T01:59:23.588Z,32.10
2023-01-02T02:01:50.765Z,30.75
2023-01-02T02:04:18.141Z,34.20
2023-01-02T02:06:48.052Z,33.15
2023-01-02T02:09:17.202Z,27.77
2023-01-02T02:11:43.855Z,27.92
2023-01-02T02:17:04.047Z,25.83
2023-01-02T02:19:49.045Z,31.92
2023-01-02T02:22:37.143Z,29.45
2023-01-02T02:25:22.127Z,30.15
2023-01-02T02:27:51.294Z,31.98
2023-01-02T02:30:20.051Z,31.85
2023-01-02T02:32:54.586Z,26.98
2023-01-02T02:35:40.163Z,28.73
2023-01-02T02:38:20.442Z,26.10
2023-01-02T02:41:04.742Z,26.25
2023-01-02T02:43:49.780Z,31.42
2023-01-02T02:46:21.657Z,28.50
2023-01-02T02:48:51.112Z,29.30
2023-01-02T02:51:23.923Z,26.27
2023-01-02T02:53:54.351Z,24.80
2023-01-02T02:56:20.914Z,26.45
2023-01-02T02:58:48.447Z,25.80
2023-01-02T03:01:16.067Z,26.27
2023-01-02T03:03:42.931Z,25.00
2023-01-02T03:06:27.994Z,25.45
2023-01-02T03:08:54.540Z,25.63
2023-01-02T03:11:23.124Z,23.88
2023-01-02T03:14:03.076Z,29.13
2023-01-02T03:16:43.713Z,31.63
2023-01-02T03:19:33.617Z,25.30
2023-01-02T03:22:07.254Z,25.35
2023-01-02T03:24:36.546Z,29.07
2023-01-02T03:27:10.508Z,27.23
2023-01-02T03:29:41.249Z,26.50
2023-01-02T03:32:11.562Z,27.65
2023-01-02T03:34:41.876Z,27.40
2023-01-02T03:37:10.878Z,25.45
2023-01-02T03:39:41.437Z,28.45
2023-01-02T03:42:11.454Z,27.30
2023-01-02T03:44:41.430Z,28.77
2023-01-02T03:47:14.023Z,25.52
2023-01-02T03:49:46.406Z,30.35
2023-01-02T03:52:12.893Z,26.95
2023-01-02T03:54:39.486Z,28.90
2023-01-02T03:57:09.190Z,28.10
2023-01-02T03:59:46.978Z,27.27
2023-01-02T04:02:16.368Z,24.35
2023-01-02T04:05:00.168Z,28.63
2023-01-02T04:07:32.866Z,27.45
2023-01-02T04:10:00.089Z,25.98
2023-01-02T04:12:27.580Z,27.30
2023-01-02T04:15:16.033Z,28.23
2023-01-02T04:17:46.566Z,27.17
2023-01-02T04:20:19.185Z,27.05
2023-01-02T04:22:50.536Z,25.58
2023-01-02T04:25:18.438Z,21.15
2023-01-02T04:27:51.340Z,26.23
2023-01-02T04:30:18.501Z,19.77
2023-01-02T04:32:45.687Z,23.50
2023-01-02T04:35:23.441Z,22.85
2023-01-02T04:37:50.457Z,23.10
2023-01-02T04:40:23.894Z,23.35
2023-01-02T04:42:52.317Z,30.98
2023-01-02T04:45:19.063Z,29.02
2023-01-02T04:47:47.341Z,29.52
2023-01-02T04:50:13.826Z,28.05
2023-01-02T04:52:40.413Z,28.38
2023-01-02T04:55:07.720Z,23.55
2023-01-02T04:57:34.376Z,18.98
2023-01-02T05:00:01.201Z,24.75
2023-01-02T05:02:28.252Z,25.73
2023-01-02T05:04:55.528Z,30.33
2023-01-02T05:07:21.993Z,27.70
2023-01-02T05:09:48.430Z,29.85
2023-01-02T05:12:16.314Z,24.98
2023-01-02T05:14:42.778Z,27.00
2023-01-02T05:17:09.275Z,23.67
2023-01-02T05:19:38.223Z,23.50
2023-01-02T05:22:05.538Z,23.30
2023-01-02T05:24:32.077Z,18.85
2023-01-02T05:26:58.767Z,19.85
2023-01-02T05:29:25.252Z,23.20
2023-01-02T05:31:51.769Z,26.42
2023-01-02T05:34:18.270Z,24.67
2023-01-02T05:36:44.861Z,25.92
2023-01-02T05:39:12.179Z,29.83
2023-01-02T05:41:41.759Z,29.45
2023-01-02T05:44:09.354Z,29.63
2023-01-02T05:46:36.815Z,30.65
2023-01-02T05:49:08.857Z,23.80
2023-01-02T05:51:36.517Z,27.15
2023-01-02T05:54:03.090Z,26.40
2023-01-02T05:56:29.991Z,22.25
2023-01-02T05:58:56.759Z,26.60
2023-01-02T06:01:30.616Z,27.75
2023-01-02T06:03:58.111Z,20.92
2023-01-02T06:06:26.497Z,22.02
2023-01-02T06:08:53.188Z,21.70
2023-01-02T06:11:19.676Z,22.02
2023-01-02T06:13:47.547Z,21.55
2023-01-02T06:16:14.163Z,22.23
2023-01-02T06:18:40.720Z,19.38
2023-01-02T06:21:15.447Z,21.83
2023-01-02T06:23:42.030Z,20.42
2023-01-02T06:26:12.935Z,21.80
2023-01-02T06:28:39.916Z,22.65
2023-01-02T06:31:07.460Z,21.90
2023-01-02T06:33:34.280Z,24.73
2023-01-02T06:36:11.232Z,21.88
2023-01-02T06:38:38.136Z,23.23
2023-01-02T06:41:05.545Z,25.30
2023-01-02T06:43:32.877Z,21.33
2023-01-02T06:46:00.304Z,23.38
2023-01-02T06:48:30.558Z,21.20
2023-01-02T06:50:57.007Z,21.58
2023-01-02T06:53:25.406Z,22.60
2023-01-02T06:55:52.543Z,24.67
2023-01-02T06:58:19.742Z,18.92
2023-01-02T07:00:46.536Z,17.88
2023-01-02T07:03:13.799Z,16.63
2023-01-02T07:05:40.998Z,23.55
2023-01-02T07:08:12.829Z,24.38
2023-01-02T07:10:39.743Z,24.85
2023-01-02T07:13:06.268Z,27.67
2023-01-02T07:15:33.183Z,24.13
2023-01-02T07:18:00.728Z,30.42
2023-01-02T07:20:27.281Z,26.33
2023-01-02T07:22:54.195Z,22.58
2023-01-02T07:25:24.203Z,22.90
2023-01-02T07:27:50.732Z,22.83
2023-01-02T07:30:17.270Z,20.15
2023-01-02T07:32:44.552Z,22.50
2023-01-02T07:35:14.657Z,27.45
2023-01-02T07:37:41.095Z,22.73
2023-01-02T07:40:10.770Z,19.55
2023-01-02T07:42:39.863Z,23.08
2023-01-02T07:45:07.121Z,22.75
2023-01-02T07:47:34.762Z,19.83
2023-01-02T07:50:01.261Z,21.38
2023-01-02T07:52:27.895Z,21.50
2023-01-02T07:54:54.432Z,21.10
2023-01-02T07:57:20.873Z,22.42
2023-01-02T07:59:51.797Z,21.73
2023-01-02T08:02:18.517Z,23.08
2023-01-02T08:04:45.087Z,18.70
2023-01-02T08:07:12.729Z,24.75
2023-01-02T08:09:39.222Z,21.67
2023-01-02T08:12:05.893Z,21.88
2023-01-02T08:14:32.720Z,22.85
2023-01-02T08:16:59.195Z,19.17
2023-01-02T08:19:26.604Z,20.42
2023-01-02T08:21:53.121Z,20.80
2023-01-02T08:24:19.615Z,23.20
2023-01-02T08:26:48.912Z,18.33
2023-01-02T08:29:15.407Z,18.55
2023-01-02T08:31:43.889Z,18.48
2023-01-02T08:34:11.234Z,21.42
2023-01-02T08:36:37.698Z,22.42
2023-01-02T08:39:08.133Z,22.05
2023-01-02T08:41:40.276Z,25.40
2023-01-02T08:44:07.281Z,24.23
2023-01-02T08:46:42.365Z,24.23
2023-01-02T08:49:16.630Z,22.60
2023-01-02T08:51:43.156Z,18.08
2023-01-02T08:54:10.661Z,25.35
2023-01-02T08:56:37.233Z,25.40
2023-01-02T08:59:08.023Z,21.80
2023-01-02T09:01:34.635Z,22.48
2023-01-02T09:04:06.233Z,21.23
2023-01-02T09:06:40.917Z,19.98
2023-01-02T09:09:12.001Z,22.05
2023-01-02T09:11:40.113Z,24.00
2023-01-02T09:14:06.609Z,22.00
2023-01-02T09:16:33.519Z,19.88
2023-01-02T09:19:01.113Z,22.00
2023-01-02T09:21:27.753Z,21.35
2023-01-02T09:23:54.787Z,23.25
2023-01-02T09:26:21.453Z,19.33
2023-01-02T09:28:48.008Z,22.65
2023-01-02T09:31:18.796Z,21.63
2023-01-02T09:33:46.162Z,21.98
2023-01-02T09:36:13.568Z,22.05
2023-01-02T09:38:42.620Z,21.33
2023-01-02T09:41:20.683Z,19.80
2023-01-02T09:43:50.647Z,20.10
2023-01-02T09:46:38.200Z,21.10
2023-01-02T09:49:05.054Z,19.42
2023-01-02T09:51:32.781Z,19.95
2023-01-02T09:53:59.359Z,20.23
2023-01-02T09:56:38.740Z,19.95
2023-01-02T09:59:21.721Z,20.92
2023-01-02T10:01:58.369Z,19.80
2023-01-02T10:04:43.666Z,19.67
2023-01-02T10:07:15.139Z,20.90
2023-01-02T10:09:41.603Z,20.48
2023-01-02T10:12:27.184Z,20.02
2023-01-02T10:14:59.389Z,20.98
2023-01-02T10:17:27.662Z,21.02
2023-01-02T10:20:29.605Z,21.27
2023-01-02T10:23:02.790Z,19.92
2023-01-02T10:25:46.726Z,18.88
2023-01-02T10:28:17.571Z,18.15
2023-01-02T10:30:51.893Z,19.98
2023-01-02T10:33:23.271Z,19.85
2023-01-02T10:35:54.804Z,20.20
2023-01-02T10:38:23.601Z,18.13
2023-01-02T10:40:50.842Z,18.10
2023-01-02T10:43:20.237Z,17.98
2023-01-02T10:45:46.776Z,17.98
2023-01-02T10:48:13.518Z,18.15
2023-01-02T10:51:01.531Z,16.67
2023-01-02T10:53:35.702Z,16.55
2023-01-02T10:56:02.812Z,17.08
2023-01-02T10:58:30.001Z,16.33
2023-01-02T11:01:04.648Z,16.35
2023-01-02T11:03:33.479Z,16.73
2023-01-02T11:06:23.238Z,16.55
2023-01-02T11:08:55.941Z,16.75
2023-01-02T11:11:23.334Z,16.42
2023-01-02T11:13:54.265Z,17.00
2023-01-02T11:16:22.130Z,15.95
2023-01-02T11:18:51.469Z,15.10
2023-01-02T11:21:24.702Z,14.13
2023-01-02T11:23:51.775Z,14.15
2023-01-02T11:26:22.880Z,15.27
2023-01-02T11:28:50.858Z,13.68
2023-01-02T11:31:18.163Z,13.30
2023-01-02T11:33:46.888Z,14.15
2023-01-02T11:36:19.145Z,15.85
2023-01-02T11:38:49.842Z,15.27
2023-01-02T11:41:22.347Z,14.43
2023-01-02T11:43:56.844Z,15.38
2023-01-02T11:48:51.799Z,13.98
2023-01-02T11:51:18.995Z,14.35
2023-01-02T11:53:45.692Z,13.65
2023-01-02T11:56:30.270Z,13.88
2023-01-02T11:59:07.193Z,13.07
2023-01-02T12:01:36.705Z,13.43
2023-01-02T12:04:04.588Z,15.10
2023-01-02T12:06:50.011Z,15.25
2023-01-02T12:09:36.083Z,15.15
2023-01-02T12:12:06.291Z,14.38
2023-01-02T12:14:55.207Z,14.18
2023-01-02T12:17:28.002Z,14.48
2023-01-02T12:20:07.860Z,15.52
2023-01-02T12:22:52.375Z,14.90
2023-01-02T12:25:24.109Z,16.38
2023-01-02T12:27:56.356Z,16.63
2023-01-02T12:30:25.093Z,15.95
2023-01-02T12:33:13.266Z,17.05
2023-01-02T12:35:42.627Z,16.05
2023-01-02T12:38:11.840Z,16.50
2023-01-02T12:40:44.262Z,17.30
2023-01-02T12:43:14.883Z,17.05
2023-01-02T12:45:56.790Z,16.88
2023-01-02T12:48:44.883Z,17.05
2023-01-02T12:51:11.495Z,18.17
2023-01-02T12:53:39.126Z,18.42
2023-01-02T12:56:05.634Z,18.02
2023-01-02T12:58:41.422Z,18.20
2023-01-02T13:01:08.040Z,18.35
2023-01-02T13:03:49.916Z,17.83
2023-01-02T13:06:45.190Z,18.05
2023-01-02T13:09:36.529Z,17.58
2023-01-02T13:12:09.603Z,18.02
2023-01-02T13:14:41.786Z,18.10
2023-01-02T13:17:31.298Z,19.52
2023-01-02T13:19:59.979Z,17.67
2023-01-02T13:22:38.784Z,17.08
2023-01-02T13:25:05.953Z,17.40
2023-01-02T13:27:33.084Z,17.13
2023-01-02T13:30:01.595Z,18.00
2023-01-02T13:32:28.906Z,18.60
2023-01-02T13:34:56.562Z,17.88
2023-01-02T13:37:28.911Z,17.75
2023-01-02T13:39:56.864Z,18.27
2023-01-02T13:42:37.945Z,15.93
2023-01-02T13:45:10.976Z,16.25
2023-01-02T13:47:38.475Z,15.68
2023-01-02T13:50:09.981Z,16.92
2023-01-02T13:52:37.106Z,16.80
2023-01-02T13:55:12.706Z,16.20
2023-01-02T13:57:42.920Z,17.95
2023-01-02T14:00:17.178Z,17.30
2023-01-02T14:03:03.755Z,16.75
2023-01-02T14:05:49.415Z,17.38
2023-01-02T14:08:37.044Z,18.17
2023-01-02T14:11:06.571Z,17.55
2023-01-02T14:13:38.646Z,18.08
2023-01-02T14:16:19.077Z,17.55
2023-01-02T14:19:01.377Z,16.92
2023-01-02T14:21:37.000Z,18.05
2023-01-02T14:24:17.147Z,17.13
2023-01-02T14:26:51.101Z,18.30
2023-01-02T14:29:18.296Z,19.15
2023-01-02T14:31:46.556Z,18.75
2023-01-02T14:34:21.664Z,20.77
2023-01-02T14:36:49.964Z,19.95
2023-01-02T14:39:33.170Z,17.65
2023-01-02T14:42:06.937Z,18.52
2023-01-02T14:44:34.639Z,17.95
2023-01-02T14:47:02.918Z,18.05
2023-01-02T14:49:30.709Z,18.63
2023-01-02T14:52:02.502Z,17.92
2023-01-02T14:54:32.615Z,18.17
2023-01-02T14:57:08.002Z,19.83
2023-01-02T14:59:44.117Z,20.83
2023-01-02T15:02:18.481Z,21.80
2023-01-02T15:07:13.041Z,18.52
2023-01-02T15:09:45.164Z,19.88
2023-01-02T15:12:31.888Z,18.65
2023-01-02T15:14:58.404Z,19.30
2023-01-02T15:17:25.666Z,17.00
2023-01-02T15:19:53.286Z,18.38
2023-01-02T15:22:21.931Z,19.02
2023-01-02T15:24:49.500Z,18.15
2023-01-02T15:27:29.683Z,18.30
2023-01-02T15:30:00.416Z,17.35
2023-01-02T15:32:33.790Z,19.08
2023-01-02T15:35:19.992Z,19.08
2023-01-02T15:37:47.503Z,20.42
2023-01-02T15:40:20.079Z,19.60
2023-01-02T15:42:48.197Z,21.38
2023-01-02T15:45:16.162Z,21.88
2023-01-02T15:47:46.993Z,20.35
2023-01-02T15:50:16.269Z,19.23
2023-01-02T15:52:44.294Z,19.17
2023-01-02T15:55:15.326Z,19.73
2023-01-02T15:57:52.781Z,19.05
2023-01-02T16:00:29.371Z,19.15
2023-01-02T16:02:56.386Z,20.05
2023-01-02T16:05:23.046Z,17.60
2023-01-02T16:07:52.062Z,18.27
2023-01-02T16:10:20.356Z,19.17
2023-01-02T16:13:04.060Z,19.90
2023-01-02T16:15:36.043Z,16.88
2023-01-02T16:18:02.750Z,20.52
2023-01-02T16:20:29.514Z,19.13
2023-01-02T16:22:56.286Z,19.98
2023-01-02T16:25:27.739Z,19.17
2023-01-02T16:27:54.266Z,19.50
2023-01-02T16:30:25.151Z,19.27
2023-01-02T16:32:52.166Z,19.83
2023-01-02T16:35:25.604Z,19.00
2023-01-02T16:37:52.129Z,19.50
2023-01-02T16:41:00.137Z,19.67
2023-01-02T16:43:11.721Z,19.42
2023-01-02T16:45:40.097Z,19.60
2023-01-02T16:48:08.209Z,18.15
2023-01-02T16:50:38.095Z,19.02
2023-01-02T16:53:09.265Z,20.83
2023-01-02T16:55:35.774Z,21.23
2023-01-02T16:58:02.249Z,19.25
2023-01-02T17:00:28.744Z,21.40
2023-01-02T17:02:56.171Z,20.90
2023-01-02T17:05:22.748Z,20.73
2023-01-02T17:07:49.273Z,20.70
2023-01-02T17:10:17.084Z,19.08
2023-01-02T17:12:43.739Z,21.05
2023-01-02T17:15:12.396Z,22.45
2023-01-02T17:17:39.005Z,20.02
2023-01-02T17:20:05.880Z,21.50
2023-01-02T17:22:32.382Z,20.92
2023-01-02T17:25:02.923Z,19.42
2023-01-02T17:27:30.579Z,21.73
2023-01-02T17:30:00.018Z,21.13
2023-01-02T17:32:26.545Z,19.25
2023-01-02T17:34:53.059Z,19.70
2023-01-02T17:37:20.125Z,21.98
2023-01-02T17:39:46.650Z,23.42
2023-01-02T17:42:13.241Z,20.85
2023-01-02T17:44:39.811Z,20.17
2023-01-02T17:47:47.917Z,22.40
2023-01-02T17:49:54.451Z,20.02
2023-01-02T17:52:21.129Z,20.08
2023-01-02T17:54:52.760Z,22.55
2023-01-02T17:57:22.824Z,18.27
2023-01-02T17:59:49.313Z,20.90
2023-01-02T18:02:16.637Z,21.73
2023-01-02T18:04:48.205Z,20.98
2023-01-02T18:07:19.185Z,20.40
2023-01-02T18:10:09.272Z,21.55
2023-01-02T18:12:33.659Z,17.50
2023-01-02T18:15:01.994Z,20.25
2023-01-02T18:17:30.538Z,22.67
2023-01-02T18:19:57.104Z,23.95
2023-01-02T18:22:27.737Z,22.48
2023-01-02T18:24:55.989Z,18.95
2023-01-02T18:27:26.629Z,22.35
2023-01-02T18:30:03.099Z,20.42
2023-01-02T18:32:40.876Z,19.02
2023-01-02T18:35:55.935Z,19.48
2023-01-02T18:38:29.627Z,18.10
2023-01-02T18:40:56.506Z,16.85
2023-01-02T18:43:33.081Z,18.98
2023-01-02T18:46:00.631Z,16.15
2023-01-02T18:48:28.246Z,23.17
2023-01-02T18:51:01.695Z,20.88
2023-01-02T18:53:30.265Z,13.48
2023-01-02T18:56:00.165Z,18.65
2023-01-02T18:58:36.622Z,18.40
2023-01-02T19:01:21.786Z,18.23
2023-01-02T19:03:48.364Z,17.33
2023-01-02T19:06:19.134Z,20.17
2023-01-02T19:08:45.839Z,19.77
2023-01-02T19:11:18.422Z,20.60
2023-01-02T19:13:44.847Z,17.73
2023-01-02T19:16:17.716Z,16.95
2023-01-02T19:18:47.931Z,16.48
2023-01-02T19:21:20.322Z,18.10
2023-01-02T19:23:53.256Z,23.38
2023-01-02T19:26:22.399Z,21.23
2023-01-02T19:28:52.234Z,24.48
2023-01-02T19:31:18.731Z,25.25
2023-01-02T19:34:01.241Z,23.75
2023-01-02T19:36:37.462Z,24.35
2023-01-02T19:39:22.601Z,27.15
2023-01-02T19:41:49.159Z,22.48
2023-01-02T19:44:16.190Z,23.40
2023-01-02T19:46:43.238Z,26.17
2023-01-02T19:49:09.753Z,21.88
2023-01-02T19:51:36.214Z,16.80
2023-01-02T19:54:04.462Z,23.35
2023-01-02T19:56:31.903Z,22.15
2023-01-02T19:58:59.220Z,22.95
2023-01-02T20:01:25.862Z,22.42
2023-01-02T20:03:53.851Z,23.92
2023-01-02T20:06:22.247Z,24.00
2023-01-02T20:08:48.841Z,23.60
2023-01-02T20:11:15.294Z,24.95
2023-01-02T20:13:41.893Z,23.80
2023-01-02T20:16:08.389Z,21.80
2023-01-02T20:18:35.152Z,22.33
2023-01-02T20:21:01.603Z,21.48
2023-01-02T20:23:28.038Z,22.05
2023-01-02T20:25:54.752Z,19.52
2023-01-02T20:28:21.331Z,23.10
2023-01-02T20:30:47.914Z,19.77
2023-01-02T20:33:14.581Z,21.80
2023-01-02T20:35:41.059Z,20.25
2023-01-02T20:38:10.581Z,23.90
2023-01-02T20:40:37.097Z,20.58
2023-01-02T20:43:04.449Z,22.27
2023-01-02T20:45:30.899Z,20.15
2023-01-02T20:47:57.571Z,19.83
2023-01-02T20:50:28.352Z,22.90
2023-01-02T20:52:57.142Z,18.55
2023-01-02T20:55:23.963Z,24.98
2023-01-02T20:57:51.665Z,20.20
2023-01-02T21:00:20.009Z,18.30
2023-01-02T21:02:46.737Z,18.88
2023-01-02T21:05:13.375Z,20.02
2023-01-02T21:07:41.571Z,22.10
2023-01-02T21:10:11.274Z,19.45
2023-01-02T21:12:41.415Z,19.27
2023-01-02T21:15:11.638Z,19.05
2023-01-02T21:17:38.156Z,16.55
2023-01-02T21:20:04.927Z,17.38
2023-01-02T21:22:31.463Z,19.80
2023-01-02T21:24:58.017Z,21.35
2023-01-02T21:27:28.074Z,20.63
2023-01-02T21:29:54.517Z,22.33
2023-01-02T21:32:21.103Z,19.75
2023-01-02T21:34:47.540Z,21.55
2023-01-02T21:37:14.039Z,20.95
2023-01-02T21:39:43.129Z,22.08
2023-01-02T21:42:13.290Z,20.88
2023-01-02T21:44:39.849Z,21.83
2023-01-02T21:47:06.472Z,19.80
2023-01-02T21:49:36.267Z,20.75
2023-01-02T21:52:06.456Z,19.92
2023-01-02T21:54:32.991Z,19.65
2023-01-02T21:57:01.076Z,22.40
2023-01-02T21:59:27.697Z,21.40
2023-01-02T22:01:59.157Z,20.67
2023-01-02T22:04:25.760Z,19.95
2023-01-02T22:09:39.156Z,26.77
2023-01-02T22:12:06.248Z,21.58
2023-01-02T22:14:36.619Z,20.85
2023-01-02T22:17:05.302Z,18.75
2023-01-02T22:19:32.080Z,19.70
2023-01-02T22:21:58.603Z,21.80
2023-01-02T22:24:25.565Z,20.35
2023-01-02T22:26:52.668Z,20.85
2023-01-02T22:29:20.078Z,25.77
2023-01-02T22:31:46.999Z,26.33
2023-01-02T22:34:16.891Z,24.30
2023-01-02T22:36:43.393Z,17.90
2023-01-02T22:39:28.049Z,20.13
2023-01-02T22:41:56.697Z,24.02
2023-01-02T22:44:24.530Z,22.77
2023-01-02T22:46:54.840Z,21.10
2023-01-02T22:49:24.638Z,21.27
2023-01-02T22:52:07.803Z,19.95
2023-01-02T22:54:34.337Z,21.55
2023-01-02T22:57:04.369Z,21.40
2023-01-02T22:59:30.881Z,22.10
2023-01-02T23:02:00.844Z,20.58
2023-01-02T23:04:27.469Z,16.70
2023-01-02T23:07:22.955Z,19.45
2023-01-02T23:09:40.674Z,18.05
2023-01-02T23:12:07.344Z,18.50
2023-01-02T23:14:33.901Z,22.60
2023-01-02T23:17:00.485Z,21.02
2023-01-02T23:19:27.154Z,20.38
2023-01-02T23:22:01.770Z,19.23
2023-01-02T23:24:30.251Z,21.58
2023-01-02T23:26:57.437Z,21.38
2023-01-02T23:29:24.668Z,17.70
2023-01-02T23:31:51.763Z,26.17
2023-01-02T23:34:19.845Z,22.80
2023-01-02T23:36:46.307Z,25.88
2023-01-02T23:39:17.377Z,20.42
2023-01-02T23:41:45.226Z,17.67
2023-01-02T23:44:12.094Z,17.20
2023-01-02T23:46:38.903Z,15.55
2023-01-02T23:49:06.896Z,16.52
2023-01-02T23:51:33.562Z,15.48
2023-01-02T23:54:08.367Z,16.60
2023-01-02T23:56:36.498Z,15.57
2023-01-02T23:59:05.115Z,13.80
